createdAt,value
2023-06-04T00:03:24.921Z,10.00
2023-06-04T00:08:27.480Z,9.90
2023-06-04T00:13:30.034Z,10.00
2023-06-04T00:18:32.497Z,9.90
2023-06-04T00:23:34.963Z,9.70
2023-06-04T00:28:37.447Z,9.60
2023-06-04T00:33:43.417Z,9.70
2023-06-04T00:38:45.919Z,9.60
2023-06-04T00:43:57.337Z,9.50
2023-06-04T00:49:00.590Z,9.50
2023-06-04T00:54:10.295Z,9.40
2023-06-04T00:59:13.375Z,9.50
2023-06-04T01:04:38.861Z,9.30
2023-06-04T01:09:41.732Z,9.20
2023-06-04T01:14:44.847Z,9.20
2023-06-04T01:19:56.018Z,9.20
2023-06-04T01:25:03.588Z,9.10
2023-06-04T01:30:06.695Z,9.10
2023-06-04T01:35:12.171Z,9.00
2023-06-04T01:40:15.325Z,8.80
2023-06-04T01:45:18.297Z,8.90
2023-06-04T01:50:21.162Z,8.80
2023-06-04T01:55:26.225Z,8.80
2023-06-04T02:00:28.802Z,8.90
2023-06-04T02:05:31.304Z,8.80
2023-06-04T02:10:33.766Z,8.60
2023-06-04T02:15:36.257Z,8.60
2023-06-04T02:20:38.632Z,8.50
2023-06-04T02:25:41.417Z,8.40
2023-06-04T02:30:46.835Z,8.30
2023-06-04T02:35:49.318Z,8.50
2023-06-04T02:40:51.731Z,8.70
2023-06-04T02:45:54.202Z,8.40
2023-06-04T02:50:56.703Z,8.40
2023-06-04T02:55:59.124Z,8.50
2023-06-04T03:01:01.813Z,8.60
2023-06-04T03:06:05.949Z,8.60
2023-06-04T03:11:08.865Z,8.60
2023-06-04T03:16:11.543Z,8.60
2023-06-04T03:21:14.395Z,8.80
2023-06-04T03:26:16.819Z,8.50
2023-06-04T03:31:19.695Z,8.50
2023-06-04T03:36:32.930Z,8.70
2023-06-04T03:41:37.608Z,8.90
2023-06-04T03:46:40.208Z,9.00
2023-06-04T03:51:42.842Z,9.80
2023-06-04T03:56:47.465Z,11.20
2023-06-04T04:01:50.560Z,12.50
2023-06-04T04:06:53.295Z,13.50
2023-06-04T04:11:56.488Z,13.90
2023-06-04T04:16:59.579Z,14.30
2023-06-04T04:22:02.631Z,14.80
2023-06-04T04:27:06.841Z,14.90
2023-06-04T04:32:12.485Z,15.20
2023-06-04T04:37:22.223Z,15.10
2023-06-04T04:42:26.205Z,15.30
2023-06-04T04:47:28.900Z,15.60
2023-06-04T04:52:31.752Z,15.50
2023-06-04T04:57:34.534Z,15.90
2023-06-04T05:02:37.941Z,16.20
2023-06-04T05:07:43.196Z,16.20
2023-06-04T05:12:57.056Z,16.00
2023-06-04T05:18:04.981Z,16.50
2023-06-04T05:23:13.517Z,16.80
2023-06-04T05:28:17.179Z,16.50
2023-06-04T05:33:20.006Z,16.60
2023-06-04T05:38:31.990Z,16.90
2023-06-04T05:43:40.644Z,17.40
2023-06-04T05:48:45.009Z,17.50
2023-06-04T05:53:48.260Z,17.80
2023-06-04T05:58:54.597Z,17.80
2023-06-04T06:03:59.299Z,18.40
2023-06-04T06:09:04.295Z,18.90
2023-06-04T06:14:07.365Z,19.10
2023-06-04T06:19:10.147Z,19.40
2023-06-04T06:24:12.616Z,19.60
2023-06-04T06:29:15.145Z,19.80
2023-06-04T06:34:19.363Z,20.50
2023-06-04T06:39:21.831Z,20.50
2023-06-04T06:44:24.242Z,21.00
2023-06-04T06:49:26.826Z,19.80
2023-06-04T06:54:29.200Z,21.00
2023-06-04T06:59:34.170Z,21.30
2023-06-04T07:04:36.716Z,21.40
2023-06-04T07:09:39.413Z,21.40
2023-06-04T07:14:41.805Z,21.60
2023-06-04T07:19:44.248Z,21.00
2023-06-04T07:24:46.719Z,22.00
2023-06-04T07:29:49.220Z,22.20
2023-06-04T07:34:51.710Z,22.10
2023-06-04T07:39:54.230Z,22.10
2023-06-04T07:44:56.632Z,22.10
2023-06-04T07:50:03.079Z,22.00
2023-06-04T07:55:07.000Z,22.20
2023-06-04T08:00:10.230Z,22.10
2023-06-04T08:05:15.682Z,22.20
2023-06-04T08:10:18.106Z,22.10
2023-06-04T08:15:20.868Z,21.70
2023-06-04T08:20:27.106Z,21.80
2023-06-04T08:25:31.329Z,21.90
2023-06-04T08:30:37.197Z,22.30
2023-06-04T08:35:39.720Z,22.00
2023-06-04T08:40:42.164Z,22.00
2023-06-04T08:45:47.161Z,22.00
2023-06-04T08:50:50.421Z,22.20
2023-06-04T08:55:54.868Z,21.90
2023-06-04T09:00:57.460Z,21.70
2023-06-04T09:06:01.412Z,21.90
2023-06-04T09:11:09.650Z,22.50
2023-06-04T09:16:12.097Z,21.90
2023-06-04T09:21:14.584Z,22.40
2023-06-04T09:26:17.018Z,22.50
2023-06-04T09:31:21.376Z,22.70
2023-06-04T09:36:23.829Z,22.70
2023-06-04T09:41:27.481Z,22.90
2023-06-04T09:46:30.503Z,23.20
2023-06-04T09:51:33.812Z,23.10
2023-06-04T09:56:43.772Z,23.40
2023-06-04T10:01:46.546Z,23.60
2023-06-04T10:06:49.737Z,23.10
2023-06-04T10:12:00.486Z,22.50
2023-06-04T10:17:05.236Z,22.70
2023-06-04T10:22:08.512Z,23.30
2023-06-04T10:27:14.744Z,23.40
2023-06-04T10:32:18.346Z,23.00
2023-06-04T10:37:22.761Z,23.10
2023-06-04T10:42:26.527Z,22.80
2023-06-04T10:47:35.090Z,23.20
2023-06-04T10:52:38.303Z,22.90
2023-06-04T10:57:42.198Z,23.40
2023-06-04T11:02:55.453Z,23.70
2023-06-04T11:07:57.895Z,24.10
2023-06-04T11:13:00.705Z,23.70
2023-06-04T11:18:03.224Z,23.60
2023-06-04T11:23:08.553Z,23.60
2023-06-04T11:28:19.433Z,23.30
2023-06-04T11:33:22.223Z,23.80
2023-06-04T11:38:24.778Z,24.30
2023-06-04T11:43:28.451Z,24.10
2023-06-04T11:48:31.960Z,24.20
2023-06-04T11:53:34.558Z,24.00
2023-06-04T11:58:37.152Z,24.10
2023-06-04T12:03:41.896Z,24.00
2023-06-04T12:08:54.636Z,24.10
2023-06-04T12:13:59.160Z,24.00
2023-06-04T12:19:12.902Z,24.00
2023-06-04T12:24:16.100Z,24.30
2023-06-04T12:29:21.105Z,24.60
2023-06-04T12:34:23.943Z,24.70
2023-06-04T12:39:26.423Z,24.80
2023-06-04T12:44:29.033Z,24.40
2023-06-04T12:49:31.474Z,24.30
2023-06-04T12:54:33.989Z,24.10
2023-06-04T12:59:37.003Z,24.20
2023-06-04T13:04:39.444Z,23.80
2023-06-04T13:09:42.445Z,23.70
2023-06-04T13:14:44.946Z,23.80
2023-06-04T13:19:47.481Z,24.00
2023-06-04T13:24:49.893Z,24.30
2023-06-04T13:29:52.293Z,24.10
2023-06-04T13:34:54.697Z,24.20
2023-06-04T13:39:57.089Z,24.00
2023-06-04T13:45:00.078Z,24.10
2023-06-04T13:50:02.861Z,24.60
2023-06-04T13:55:05.746Z,24.10
2023-06-04T14:00:09.138Z,24.30
2023-06-04T14:05:11.617Z,24.70
2023-06-04T14:10:14.465Z,24.30
2023-06-04T14:15:16.975Z,24.10
2023-06-04T14:20:19.699Z,24.10
2023-06-04T14:25:22.204Z,24.70
2023-06-04T14:30:24.582Z,25.50
2023-06-04T14:35:27.011Z,24.90
2023-06-04T14:40:29.400Z,24.90
2023-06-04T14:45:32.024Z,24.80
2023-06-04T14:50:34.502Z,24.70
2023-06-04T14:55:37.426Z,24.70
2023-06-04T15:00:39.896Z,24.50
2023-06-04T15:05:42.421Z,24.20
2023-06-04T15:10:44.900Z,24.00
2023-06-04T15:15:47.349Z,24.30
2023-06-04T15:20:49.741Z,24.20
2023-06-04T15:25:52.158Z,24.00
2023-06-04T15:30:54.595Z,23.80
2023-06-04T15:35:57.047Z,23.60
2023-06-04T15:40:59.663Z,23.50
2023-06-04T15:46:02.156Z,23.30
2023-06-04T15:51:04.663Z,23.20
2023-06-04T15:56:07.111Z,22.80
2023-06-04T16:01:10.252Z,22.90
2023-06-04T16:06:13.009Z,22.90
2023-06-04T16:11:15.941Z,23.10
2023-06-04T16:16:19.373Z,23.10
2023-06-04T16:21:22.361Z,22.80
2023-06-04T16:26:24.771Z,22.90
2023-06-04T16:31:27.280Z,22.80
2023-06-04T16:36:30.622Z,22.90
2023-06-04T16:41:34.135Z,22.80
2023-06-04T16:46:37.033Z,22.50
2023-06-04T16:51:41.520Z,22.40
2023-06-04T16:56:43.896Z,22.20
2023-06-04T17:01:46.309Z,22.30
2023-06-04T17:06:48.834Z,22.30
2023-06-04T17:11:51.273Z,22.30
2023-06-04T17:16:53.722Z,22.30
2023-06-04T17:21:56.182Z,22.00
2023-06-04T17:26:58.707Z,21.90
2023-06-04T17:32:01.233Z,21.80
2023-06-04T17:37:04.289Z,21.60
2023-06-04T17:42:06.925Z,21.40
2023-06-04T17:47:09.385Z,21.30
2023-06-04T17:52:11.848Z,21.20
2023-06-04T17:57:14.520Z,21.10
2023-06-04T18:02:16.939Z,20.90
2023-06-04T18:07:20.524Z,20.70
2023-06-04T18:12:23.212Z,20.60
2023-06-04T18:17:26.239Z,20.40
2023-06-04T18:22:28.754Z,20.30
2023-06-04T18:27:31.281Z,20.00
2023-06-04T18:32:36.520Z,19.80
2023-06-04T18:37:38.998Z,19.60
2023-06-04T18:42:41.426Z,19.30
2023-06-04T18:47:44.145Z,19.10
2023-06-04T18:52:46.613Z,18.90
2023-06-04T18:57:49.059Z,18.70
2023-06-04T19:02:51.551Z,18.40
2023-06-04T19:07:54.047Z,18.20
2023-06-04T19:12:56.493Z,18.00
2023-06-04T19:17:59.162Z,17.90
2023-06-04T19:23:01.693Z,17.50
2023-06-04T19:28:07.347Z,17.20
2023-06-04T19:33:09.821Z,17.10
2023-06-04T19:38:12.309Z,16.90
2023-06-04T19:43:14.728Z,16.70
2023-06-04T19:48:17.305Z,16.60
2023-06-04T19:53:19.753Z,16.50
2023-06-04T19:58:22.443Z,16.20
2023-06-04T20:03:26.130Z,16.00
2023-06-04T20:08:28.621Z,15.90
2023-06-04T20:13:31.142Z,15.80
2023-06-04T20:18:34.400Z,15.60
2023-06-04T20:23:37.058Z,15.40
2023-06-04T20:28:39.550Z,15.20
2023-06-04T20:33:41.989Z,15.00
2023-06-04T20:38:44.681Z,14.90
2023-06-04T20:43:48.860Z,14.90
2023-06-04T20:48:51.424Z,14.90
2023-06-04T20:53:53.930Z,14.70
2023-06-04T20:58:56.432Z,14.60
2023-06-04T21:04:01.279Z,14.60
2023-06-04T21:09:07.866Z,14.50
2023-06-04T21:14:10.788Z,14.40
2023-06-04T21:19:13.190Z,14.20
2023-06-04T21:24:15.624Z,14.00
2023-06-04T21:29:18.017Z,14.00
2023-06-04T21:34:20.493Z,13.90
2023-06-04T21:39:22.891Z,13.90
2023-06-04T21:44:25.523Z,13.70
2023-06-04T21:49:28.429Z,13.70
2023-06-04T21:54:30.820Z,13.70
2023-06-04T21:59:33.185Z,13.70
2023-06-04T22:04:35.873Z,13.50
2023-06-04T22:09:38.387Z,13.40
2023-06-04T22:14:41.212Z,13.20
2023-06-04T22:19:43.651Z,13.10
2023-06-04T22:24:46.165Z,13.00
2023-06-04T22:29:48.612Z,13.00
2023-06-04T22:34:51.026Z,13.00
2023-06-04T22:39:53.570Z,12.90
2023-06-04T22:44:56.505Z,12.80
2023-06-04T22:49:58.897Z,12.90
2023-06-04T22:55:02.221Z,12.70
2023-06-04T23:00:06.552Z,12.60
2023-06-04T23:05:10.759Z,12.70
2023-06-04T23:10:13.736Z,12.50
2023-06-04T23:15:24.035Z,12.50
2023-06-04T23:20:26.631Z,12.40
2023-06-04T23:25:29.264Z,12.20
2023-06-04T23:30:31.710Z,12.30
2023-06-04T23:35:34.226Z,12.20
2023-06-04T23:40:36.677Z,12.30
2023-06-04T23:45:39.216Z,12.00
2023-06-04T23:50:41.712Z,11.80
2023-06-04T23:55:44.095Z,11.80
